sensor_id;sensor_type;location;lat;lon;timestamp;temperature;humidity
5128;DHT22;2582;48.770;9.190;2022-08-19T00:01:31;23.10;99.90
5128;DHT22;2582;48.770;9.190;2022-08-19T00:04:02;23.20;99.90
5128;DHT22;2582;48.770;9.190;2022-08-19T00:06:29;23.10;99.90
5128;DHT22;2582;48.770;9.190;2022-08-19T00:08:55;23.20;99.90
5128;DHT22;2582;48.770;9.190;2022-08-19T00:11:21;22.90;99.90
5128;DHT22;2582;48.770;9.190;2022-08-19T00:13:47;23.00;99.90
5128;DHT22;2582;48.770;9.190;2022-08-19T00:16:16;23.10;99.90
5128;DHT22;2582;48.770;9.190;2022-08-19T00:18:43;23.10;99.90
5128;DHT22;2582;48.770;9.190;2022-08-19T00:21:09;23.10;99.90
5128;DHT22;2582;48.770;9.190;2022-08-19T00:23:35;23.10;99.90
5128;DHT22;2582;48.770;9.190;2022-08-19T00:26:05;23.10;99.90
5128;DHT22;2582;48.770;9.190;2022-08-19T00:28:32;23.20;99.90
5128;DHT22;2582;48.770;9.190;2022-08-19T00:30:58;23.00;99.90
5128;DHT22;2582;48.770;9.190;2022-08-19T00:33:25;23.00;99.90
5128;DHT22;2582;48.770;9.190;2022-08-19T00:35:50;23.00;99.90
5128;DHT22;2582;48.770;9.190;2022-08-19T00:38:16;22.80;99.90
5128;DHT22;2582;48.770;9.190;2022-08-19T00:40:43;23.00;99.90
5128;DHT22;2582;48.770;9.190;2022-08-19T00:43:12;22.90;99.90
5128;DHT22;2582;48.770;9.190;2022-08-19T00:45:41;22.90;99.90
5128;DHT22;2582;48.770;9.190;2022-08-19T00:48:09;23.00;99.90
5128;DHT22;2582;48.770;9.190;2022-08-19T00:50:35;22.90;99.90
5128;DHT22;2582;48.770;9.190;2022-08-19T00:53:01;22.80;99.90
5128;DHT22;2582;48.770;9.190;2022-08-19T00:55:28;22.70;99.90
5128;DHT22;2582;48.770;9.190;2022-08-19T00:58:09;22.70;99.90
5128;DHT22;2582;48.770;9.190;2022-08-19T01:00:36;22.60;99.90
5128;DHT22;2582;48.770;9.190;2022-08-19T01:03:07;22.50;99.90
5128;DHT22;2582;48.770;9.190;2022-08-19T01:05:34;22.60;99.90
5128;DHT22;2582;48.770;9.190;2022-08-19T01:08:02;22.70;99.90
5128;DHT22;2582;48.770;9.190;2022-08-19T01:10:31;22.80;99.90
5128;DHT22;2582;48.770;9.190;2022-08-19T01:12:59;22.90;99.90
5128;DHT22;2582;48.770;9.190;2022-08-19T01:15:31;23.00;99.90
5128;DHT22;2582;48.770;9.190;2022-08-19T01:18:00;23.10;99.90
5128;DHT22;2582;48.770;9.190;2022-08-19T01:20:26;22.90;99.90
5128;DHT22;2582;48.770;9.190;2022-08-19T01:22:54;22.80;99.90
5128;DHT22;2582;48.770;9.190;2022-08-19T01:25:30;22.90;99.90
5128;DHT22;2582;48.770;9.190;2022-08-19T01:27:56;22.80;99.90
5128;DHT22;2582;48.770;9.190;2022-08-19T01:30:30;23.00;99.90
5128;DHT22;2582;48.770;9.190;2022-08-19T01:32:57;22.80;99.90
5128;DHT22;2582;48.770;9.190;2022-08-19T01:35:25;22.70;99.90
5128;DHT22;2582;48.770;9.190;2022-08-19T01:38:02;22.60;99.90
5128;DHT22;2582;48.770;9.190;2022-08-19T01:40:33;22.60;99.90
5128;DHT22;2582;48.770;9.190;2022-08-19T01:42:59;22.50;99.90
5128;DHT22;2582;48.770;9.190;2022-08-19T01:45:27;22.60;99.90
5128;DHT22;2582;48.770;9.190;2022-08-19T01:47:54;22.70;99.90
5128;DHT22;2582;48.770;9.190;2022-08-19T01:50:19;22.90;99.90
5128;DHT22;2582;48.770;9.190;2022-08-19T01:52:46;23.00;99.90
5128;DHT22;2582;48.770;9.190;2022-08-19T01:55:14;23.00;99.90
5128;DHT22;2582;48.770;9.190;2022-08-19T01:57:44;22.90;99.90
5128;DHT22;2582;48.770;9.190;2022-08-19T02:00:14;22.80;99.90
5128;DHT22;2582;48.770;9.190;2022-08-19T02:02:41;23.10;99.90
5128;DHT22;2582;48.770;9.190;2022-08-19T02:05:07;22.90;99.90
5128;DHT22;2582;48.770;9.190;2022-08-19T02:07:34;22.70;99.90
5128;DHT22;2582;48.770;9.190;2022-08-19T02:10:04;22.70;99.90
5128;DHT22;2582;48.770;9.190;2022-08-19T02:12:30;22.70;99.90
5128;DHT22;2582;48.770;9.190;2022-08-19T02:14:55;22.50;99.90
5128;DHT22;2582;48.770;9.190;2022-08-19T02:17:21;22.60;99.90
5128;DHT22;2582;48.770;9.190;2022-08-19T02:19:46;22.50;99.90
5128;DHT22;2582;48.770;9.190;2022-08-19T02:22:13;22.40;99.90
5128;DHT22;2582;48.770;9.190;2022-08-19T02:24:38;22.40;99.90
5128;DHT22;2582;48.770;9.190;2022-08-19T02:27:04;22.20;99.90
5128;DHT22;2582;48.770;9.190;2022-08-19T02:29:31;22.30;99.90
5128;DHT22;2582;48.770;9.190;2022-08-19T02:31:56;22.20;99.90
5128;DHT22;2582;48.770;9.190;2022-08-19T02:34:22;22.20;99.90
5128;DHT22;2582;48.770;9.190;2022-08-19T02:36:50;22.10;99.90
5128;DHT22;2582;48.770;9.190;2022-08-19T02:39:16;22.20;99.90
5128;DHT22;2582;48.770;9.190;2022-08-19T02:41:41;22.30;99.90
5128;DHT22;2582;48.770;9.190;2022-08-19T02:44:07;22.40;99.90
5128;DHT22;2582;48.770;9.190;2022-08-19T02:46:33;22.50;99.90
5128;DHT22;2582;48.770;9.190;2022-08-19T02:49:02;22.60;99.90
5128;DHT22;2582;48.770;9.190;2022-08-19T02:51:34;22.50;99.90
5128;DHT22;2582;48.770;9.190;2022-08-19T02:54:01;22.50;99.90
5128;DHT22;2582;48.770;9.190;2022-08-19T02:56:27;22.40;99.90
5128;DHT22;2582;48.770;9.190;2022-08-19T02:58:54;22.10;99.90
5128;DHT22;2582;48.770;9.190;2022-08-19T03:01:26;22.10;99.90
5128;DHT22;2582;48.770;9.190;2022-08-19T03:03:52;22.00;99.90
5128;DHT22;2582;48.770;9.190;2022-08-19T03:06:18;21.90;99.90
5128;DHT22;2582;48.770;9.190;2022-08-19T03:08:46;22.00;99.90
5128;DHT22;2582;48.770;9.190;2022-08-19T03:11:17;22.10;99.90
5128;DHT22;2582;48.770;9.190;2022-08-19T03:13:45;22.20;99.90
5128;DHT22;2582;48.770;9.190;2022-08-19T03:16:12;21.90;99.90
5128;DHT22;2582;48.770;9.190;2022-08-19T03:18:38;21.90;99.90
5128;DHT22;2582;48.770;9.190;2022-08-19T03:21:04;21.90;99.90
5128;DHT22;2582;48.770;9.190;2022-08-19T03:23:30;21.90;99.90
5128;DHT22;2582;48.770;9.190;2022-08-19T03:25:55;22.00;99.90
5128;DHT22;2582;48.770;9.190;2022-08-19T03:28:21;22.00;99.90
5128;DHT22;2582;48.770;9.190;2022-08-19T03:31:06;21.90;99.90
5128;DHT22;2582;48.770;9.190;2022-08-19T03:33:33;21.90;99.90
5128;DHT22;2582;48.770;9.190;2022-08-19T03:36:01;22.00;99.90
5128;DHT22;2582;48.770;9.190;2022-08-19T03:38:28;21.70;99.90
5128;DHT22;2582;48.770;9.190;2022-08-19T03:40:53;21.50;99.90
5128;DHT22;2582;48.770;9.190;2022-08-19T03:43:19;21.60;99.90
5128;DHT22;2582;48.770;9.190;2022-08-19T03:45:44;21.70;99.90
5128;DHT22;2582;48.770;9.190;2022-08-19T03:48:10;21.50;99.90
5128;DHT22;2582;48.770;9.190;2022-08-19T03:50:39;21.60;99.90
5128;DHT22;2582;48.770;9.190;2022-08-19T03:53:05;21.70;99.90
5128;DHT22;2582;48.770;9.190;2022-08-19T03:55:31;21.70;99.90
5128;DHT22;2582;48.770;9.190;2022-08-19T03:57:57;21.80;99.90
5128;DHT22;2582;48.770;9.190;2022-08-19T04:00:22;21.90;99.90
5128;DHT22;2582;48.770;9.190;2022-08-19T04:02:48;21.70;99.90
5128;DHT22;2582;48.770;9.190;2022-08-19T04:05:13;21.60;99.90
5128;DHT22;2582;48.770;9.190;2022-08-19T04:07:40;21.40;99.90
5128;DHT22;2582;48.770;9.190;2022-08-19T04:10:06;21.40;99.90
5128;DHT22;2582;48.770;9.190;2022-08-19T04:12:31;21.40;99.90
5128;DHT22;2582;48.770;9.190;2022-08-19T04:14:57;21.40;99.90
5128;DHT22;2582;48.770;9.190;2022-08-19T04:17:23;21.40;99.90
5128;DHT22;2582;48.770;9.190;2022-08-19T04:19:49;21.30;99.90
5128;DHT22;2582;48.770;9.190;2022-08-19T04:22:15;21.50;99.90
5128;DHT22;2582;48.770;9.190;2022-08-19T04:24:41;21.60;99.90
5128;DHT22;2582;48.770;9.190;2022-08-19T04:27:06;21.50;99.90
5128;DHT22;2582;48.770;9.190;2022-08-19T04:29:32;21.40;99.90
5128;DHT22;2582;48.770;9.190;2022-08-19T04:31:59;21.30;99.90
5128;DHT22;2582;48.770;9.190;2022-08-19T04:34:27;21.20;99.90
5128;DHT22;2582;48.770;9.190;2022-08-19T04:36:55;21.30;99.90
5128;DHT22;2582;48.770;9.190;2022-08-19T04:39:25;21.40;99.90
5128;DHT22;2582;48.770;9.190;2022-08-19T04:42:10;21.50;99.90
5128;DHT22;2582;48.770;9.190;2022-08-19T04:44:54;21.50;99.90
5128;DHT22;2582;48.770;9.190;2022-08-19T04:47:20;21.40;99.90
5128;DHT22;2582;48.770;9.190;2022-08-19T04:49:45;21.40;99.90
5128;DHT22;2582;48.770;9.190;2022-08-19T04:52:11;21.40;99.90
5128;DHT22;2582;48.770;9.190;2022-08-19T04:54:37;21.50;99.90
5128;DHT22;2582;48.770;9.190;2022-08-19T04:57:02;21.60;99.90
5128;DHT22;2582;48.770;9.190;2022-08-19T04:59:31;21.70;99.90
5128;DHT22;2582;48.770;9.190;2022-08-19T05:01:58;21.40;99.90
5128;DHT22;2582;48.770;9.190;2022-08-19T05:04:24;21.30;99.90
5128;DHT22;2582;48.770;9.190;2022-08-19T05:06:49;21.40;99.90
5128;DHT22;2582;48.770;9.190;2022-08-19T05:09:17;21.30;99.90
5128;DHT22;2582;48.770;9.190;2022-08-19T05:11:43;21.30;99.90
5128;DHT22;2582;48.770;9.190;2022-08-19T05:14:09;21.40;99.90
5128;DHT22;2582;48.770;9.190;2022-08-19T05:16:38;21.50;99.90
5128;DHT22;2582;48.770;9.190;2022-08-19T05:19:03;21.50;99.90
5128;DHT22;2582;48.770;9.190;2022-08-19T05:21:48;21.40;99.90
5128;DHT22;2582;48.770;9.190;2022-08-19T05:24:32;21.50;99.90
5128;DHT22;2582;48.770;9.190;2022-08-19T05:27:00;21.50;99.90
5128;DHT22;2582;48.770;9.190;2022-08-19T05:29:28;21.60;99.90
5128;DHT22;2582;48.770;9.190;2022-08-19T05:31:54;21.60;99.90
5128;DHT22;2582;48.770;9.190;2022-08-19T05:34:22;21.60;99.90
5128;DHT22;2582;48.770;9.190;2022-08-19T05:36:51;21.70;99.90
5128;DHT22;2582;48.770;9.190;2022-08-19T05:39:23;21.70;99.90
5128;DHT22;2582;48.770;9.190;2022-08-19T05:41:54;21.70;99.90
5128;DHT22;2582;48.770;9.190;2022-08-19T05:44:20;21.60;99.90
5128;DHT22;2582;48.770;9.190;2022-08-19T05:46:47;21.60;99.90
5128;DHT22;2582;48.770;9.190;2022-08-19T05:49:15;21.60;99.90
5128;DHT22;2582;48.770;9.190;2022-08-19T05:51:42;21.60;99.90
5128;DHT22;2582;48.770;9.190;2022-08-19T05:54:08;21.70;99.90
5128;DHT22;2582;48.770;9.190;2022-08-19T05:56:34;21.70;99.90
5128;DHT22;2582;48.770;9.190;2022-08-19T05:59:04;21.70;99.90
5128;DHT22;2582;48.770;9.190;2022-08-19T06:01:34;21.80;99.90
5128;DHT22;2582;48.770;9.190;2022-08-19T06:04:00;21.80;99.90
5128;DHT22;2582;48.770;9.190;2022-08-19T06:06:26;21.80;99.90
5128;DHT22;2582;48.770;9.190;2022-08-19T06:08:51;21.60;99.90
5128;DHT22;2582;48.770;9.190;2022-08-19T06:11:23;21.60;99.90
5128;DHT22;2582;48.770;9.190;2022-08-19T06:13:52;21.60;99.90
5128;DHT22;2582;48.770;9.190;2022-08-19T06:16:20;21.70;99.90
5128;DHT22;2582;48.770;9.190;2022-08-19T06:18:51;21.50;99.90
5128;DHT22;2582;48.770;9.190;2022-08-19T06:21:22;21.40;99.90
5128;DHT22;2582;48.770;9.190;2022-08-19T06:23:48;21.30;99.90
5128;DHT22;2582;48.770;9.190;2022-08-19T06:26:15;21.40;99.90
5128;DHT22;2582;48.770;9.190;2022-08-19T06:28:41;21.40;99.90
5128;DHT22;2582;48.770;9.190;2022-08-19T06:31:10;21.40;99.90
5128;DHT22;2582;48.770;9.190;2022-08-19T06:33:39;21.30;99.90
5128;DHT22;2582;48.770;9.190;2022-08-19T06:36:05;21.40;99.90
5128;DHT22;2582;48.770;9.190;2022-08-19T06:38:31;21.50;99.90
5128;DHT22;2582;48.770;9.190;2022-08-19T06:41:03;21.30;99.90
5128;DHT22;2582;48.770;9.190;2022-08-19T06:43:29;21.20;99.90
5128;DHT22;2582;48.770;9.190;2022-08-19T06:45:55;21.30;99.90
5128;DHT22;2582;48.770;9.190;2022-08-19T06:48:21;21.30;99.90
5128;DHT22;2582;48.770;9.190;2022-08-19T06:50:46;21.40;99.90
5128;DHT22;2582;48.770;9.190;2022-08-19T06:53:15;21.40;99.90
5128;DHT22;2582;48.770;9.190;2022-08-19T06:55:41;21.40;99.90
5128;DHT22;2582;48.770;9.190;2022-08-19T06:58:06;21.40;99.90
5128;DHT22;2582;48.770;9.190;2022-08-19T07:00:32;21.30;99.90
5128;DHT22;2582;48.770;9.190;2022-08-19T07:02:58;21.60;99.90
5128;DHT22;2582;48.770;9.190;2022-08-19T07:05:24;21.40;99.90
5128;DHT22;2582;48.770;9.190;2022-08-19T07:07:50;21.40;99.90
5128;DHT22;2582;48.770;9.190;2022-08-19T07:10:15;21.20;99.90
5128;DHT22;2582;48.770;9.190;2022-08-19T07:12:41;21.20;99.90
5128;DHT22;2582;48.770;9.190;2022-08-19T07:15:07;21.40;99.90
5128;DHT22;2582;48.770;9.190;2022-08-19T07:17:35;21.40;99.90
5128;DHT22;2582;48.770;9.190;2022-08-19T07:20:06;21.50;99.90
5128;DHT22;2582;48.770;9.190;2022-08-19T07:22:35;21.50;99.90
5128;DHT22;2582;48.770;9.190;2022-08-19T07:25:01;21.40;99.90
5128;DHT22;2582;48.770;9.190;2022-08-19T07:27:28;21.50;99.90
5128;DHT22;2582;48.770;9.190;2022-08-19T07:29:54;21.30;99.90
5128;DHT22;2582;48.770;9.190;2022-08-19T07:32:20;21.40;99.90
5128;DHT22;2582;48.770;9.190;2022-08-19T07:34:45;21.30;99.90
5128;DHT22;2582;48.770;9.190;2022-08-19T07:37:11;21.20;99.90
5128;DHT22;2582;48.770;9.190;2022-08-19T07:39:38;21.30;99.90
5128;DHT22;2582;48.770;9.190;2022-08-19T07:42:07;21.40;99.90
5128;DHT22;2582;48.770;9.190;2022-08-19T07:44:33;21.30;99.90
5128;DHT22;2582;48.770;9.190;2022-08-19T07:47:00;21.20;99.90
5128;DHT22;2582;48.770;9.190;2022-08-19T07:49:26;21.20;99.90
5128;DHT22;2582;48.770;9.190;2022-08-19T07:51:56;21.20;99.90
5128;DHT22;2582;48.770;9.190;2022-08-19T07:54:23;21.10;99.90
5128;DHT22;2582;48.770;9.190;2022-08-19T07:56:49;21.20;99.90
5128;DHT22;2582;48.770;9.190;2022-08-19T07:59:16;21.20;99.90
5128;DHT22;2582;48.770;9.190;2022-08-19T08:01:43;21.20;99.90
5128;DHT22;2582;48.770;9.190;2022-08-19T08:04:09;21.20;99.90
5128;DHT22;2582;48.770;9.190;2022-08-19T08:06:53;21.30;99.90
5128;DHT22;2582;48.770;9.190;2022-08-19T08:09:40;21.20;99.90
5128;DHT22;2582;48.770;9.190;2022-08-19T08:12:11;21.30;99.90
5128;DHT22;2582;48.770;9.190;2022-08-19T08:14:41;21.30;99.90
5128;DHT22;2582;48.770;9.190;2022-08-19T08:17:08;21.30;99.90
5128;DHT22;2582;48.770;9.190;2022-08-19T08:19:34;21.50;99.90
5128;DHT22;2582;48.770;9.190;2022-08-19T08:22:01;21.30;99.90
5128;DHT22;2582;48.770;9.190;2022-08-19T08:24:29;21.30;99.90
5128;DHT22;2582;48.770;9.190;2022-08-19T08:26:56;21.10;99.90
5128;DHT22;2582;48.770;9.190;2022-08-19T08:29:22;21.10;99.90
5128;DHT22;2582;48.770;9.190;2022-08-19T08:31:48;21.10;99.90
5128;DHT22;2582;48.770;9.190;2022-08-19T08:34:14;21.00;99.90
5128;DHT22;2582;48.770;9.190;2022-08-19T08:36:43;20.90;99.90
5128;DHT22;2582;48.770;9.190;2022-08-19T08:39:15;20.90;99.90
5128;DHT22;2582;48.770;9.190;2022-08-19T08:42:17;21.00;99.90
5128;DHT22;2582;48.770;9.190;2022-08-19T08:45:06;21.00;99.90
5128;DHT22;2582;48.770;9.190;2022-08-19T08:47:43;20.90;99.90
5128;DHT22;2582;48.770;9.190;2022-08-19T08:50:20;21.00;99.90
5128;DHT22;2582;48.770;9.190;2022-08-19T08:52:51;21.10;99.90
5128;DHT22;2582;48.770;9.190;2022-08-19T08:55:24;21.10;99.90
5128;DHT22;2582;48.770;9.190;2022-08-19T08:57:52;21.00;99.90
5128;DHT22;2582;48.770;9.190;2022-08-19T09:02:48;21.30;99.90
5128;DHT22;2582;48.770;9.190;2022-08-19T09:05:14;21.40;99.90
5128;DHT22;2582;48.770;9.190;2022-08-19T09:08:00;21.30;99.90
5128;DHT22;2582;48.770;9.190;2022-08-19T09:10:37;21.30;99.90
5128;DHT22;2582;48.770;9.190;2022-08-19T09:16:18;21.50;99.90
5128;DHT22;2582;48.770;9.190;2022-08-19T09:18:49;21.50;99.90
5128;DHT22;2582;48.770;9.190;2022-08-19T09:21:18;21.50;99.90
5128;DHT22;2582;48.770;9.190;2022-08-19T09:23:44;21.60;99.90
5128;DHT22;2582;48.770;9.190;2022-08-19T09:26:12;21.60;99.90
5128;DHT22;2582;48.770;9.190;2022-08-19T09:28:39;21.80;99.90
5128;DHT22;2582;48.770;9.190;2022-08-19T09:31:29;21.70;99.90
5128;DHT22;2582;48.770;9.190;2022-08-19T09:33:55;21.60;99.90
5128;DHT22;2582;48.770;9.190;2022-08-19T09:36:24;21.60;99.90
5128;DHT22;2582;48.770;9.190;2022-08-19T09:38:50;21.70;99.90
5128;DHT22;2582;48.770;9.190;2022-08-19T09:41:19;21.80;99.90
5128;DHT22;2582;48.770;9.190;2022-08-19T09:43:46;21.80;99.90
5128;DHT22;2582;48.770;9.190;2022-08-19T09:46:12;21.70;99.90
5128;DHT22;2582;48.770;9.190;2022-08-19T09:48:39;21.70;99.90
5128;DHT22;2582;48.770;9.190;2022-08-19T09:51:10;21.60;99.90
5128;DHT22;2582;48.770;9.190;2022-08-19T09:53:37;21.70;99.90
5128;DHT22;2582;48.770;9.190;2022-08-19T09:56:04;22.00;99.90
5128;DHT22;2582;48.770;9.190;2022-08-19T09:58:30;22.00;99.90
5128;DHT22;2582;48.770;9.190;2022-08-19T10:00:58;22.20;99.90
5128;DHT22;2582;48.770;9.190;2022-08-19T10:03:25;22.40;99.90
5128;DHT22;2582;48.770;9.190;2022-08-19T10:05:50;22.40;99.90
5128;DHT22;2582;48.770;9.190;2022-08-19T10:08:20;22.30;99.90
5128;DHT22;2582;48.770;9.190;2022-08-19T10:10:46;22.30;99.90
5128;DHT22;2582;48.770;9.190;2022-08-19T10:13:14;22.10;99.90
5128;DHT22;2582;48.770;9.190;2022-08-19T10:15:40;22.20;99.90
5128;DHT22;2582;48.770;9.190;2022-08-19T10:18:07;22.20;99.90
5128;DHT22;2582;48.770;9.190;2022-08-19T10:20:32;22.20;99.90
5128;DHT22;2582;48.770;9.190;2022-08-19T10:23:03;22.20;99.90
5128;DHT22;2582;48.770;9.190;2022-08-19T10:25:29;22.30;99.90
5128;DHT22;2582;48.770;9.190;2022-08-19T10:27:55;22.20;99.90
5128;DHT22;2582;48.770;9.190;2022-08-19T10:30:20;22.20;99.90
5128;DHT22;2582;48.770;9.190;2022-08-19T10:32:46;22.30;99.90
5128;DHT22;2582;48.770;9.190;2022-08-19T10:35:13;22.30;99.90
5128;DHT22;2582;48.770;9.190;2022-08-19T10:37:39;22.50;99.90
5128;DHT22;2582;48.770;9.190;2022-08-19T10:40:06;22.60;99.90
5128;DHT22;2582;48.770;9.190;2022-08-19T10:42:33;22.50;99.90
5128;DHT22;2582;48.770;9.190;2022-08-19T10:44:58;22.50;99.90
5128;DHT22;2582;48.770;9.190;2022-08-19T10:47:24;22.60;99.90
5128;DHT22;2582;48.770;9.190;2022-08-19T10:49:49;22.50;99.90
5128;DHT22;2582;48.770;9.190;2022-08-19T10:52:34;22.50;99.90
5128;DHT22;2582;48.770;9.190;2022-08-19T10:55:01;22.60;99.90
5128;DHT22;2582;48.770;9.190;2022-08-19T10:57:45;22.80;99.90
5128;DHT22;2582;48.770;9.190;2022-08-19T11:00:12;23.10;99.90
5128;DHT22;2582;48.770;9.190;2022-08-19T11:02:38;23.30;99.90
5128;DHT22;2582;48.770;9.190;2022-08-19T11:05:04;23.10;99.90
5128;DHT22;2582;48.770;9.190;2022-08-19T11:07:32;22.90;99.90
5128;DHT22;2582;48.770;9.190;2022-08-19T11:09:58;23.00;99.90
5128;DHT22;2582;48.770;9.190;2022-08-19T11:12:23;23.00;99.90
5128;DHT22;2582;48.770;9.190;2022-08-19T11:14:49;22.80;99.90
5128;DHT22;2582;48.770;9.190;2022-08-19T11:17:15;22.80;99.90
5128;DHT22;2582;48.770;9.190;2022-08-19T11:19:41;23.00;99.90
5128;DHT22;2582;48.770;9.190;2022-08-19T11:22:09;23.00;99.90
5128;DHT22;2582;48.770;9.190;2022-08-19T11:24:35;23.00;99.90
5128;DHT22;2582;48.770;9.190;2022-08-19T11:27:04;23.00;99.90
5128;DHT22;2582;48.770;9.190;2022-08-19T11:29:30;23.00;99.90
5128;DHT22;2582;48.770;9.190;2022-08-19T11:31:56;23.20;99.90
5128;DHT22;2582;48.770;9.190;2022-08-19T11:34:24;23.50;99.90
5128;DHT22;2582;48.770;9.190;2022-08-19T11:36:51;23.90;99.90
5128;DHT22;2582;48.770;9.190;2022-08-19T11:39:20;24.20;99.90
5128;DHT22;2582;48.770;9.190;2022-08-19T11:41:46;24.20;99.90
5128;DHT22;2582;48.770;9.190;2022-08-19T11:44:12;24.50;99.90
5128;DHT22;2582;48.770;9.190;2022-08-19T11:46:40;24.50;99.90
5128;DHT22;2582;48.770;9.190;2022-08-19T11:49:06;24.40;99.90
5128;DHT22;2582;48.770;9.190;2022-08-19T11:51:35;24.10;99.90
5128;DHT22;2582;48.770;9.190;2022-08-19T11:54:04;23.90;99.90
5128;DHT22;2582;48.770;9.190;2022-08-19T11:56:31;24.10;99.90
5128;DHT22;2582;48.770;9.190;2022-08-19T11:58:57;24.20;99.90
5128;DHT22;2582;48.770;9.190;2022-08-19T12:01:25;24.00;99.90
5128;DHT22;2582;48.770;9.190;2022-08-19T12:03:52;24.00;99.90
5128;DHT22;2582;48.770;9.190;2022-08-19T12:06:22;24.20;99.90
5128;DHT22;2582;48.770;9.190;2022-08-19T12:08:52;24.40;99.90
5128;DHT22;2582;48.770;9.190;2022-08-19T12:11:19;24.60;99.90
5128;DHT22;2582;48.770;9.190;2022-08-19T12:13:44;24.70;99.90
5128;DHT22;2582;48.770;9.190;2022-08-19T12:16:17;24.70;99.90
5128;DHT22;2582;48.770;9.190;2022-08-19T12:18:44;24.40;99.90
5128;DHT22;2582;48.770;9.190;2022-08-19T12:21:15;24.20;99.90
5128;DHT22;2582;48.770;9.190;2022-08-19T12:23:42;24.20;99.90
5128;DHT22;2582;48.770;9.190;2022-08-19T12:26:10;24.50;99.90
5128;DHT22;2582;48.770;9.190;2022-08-19T12:28:36;24.60;99.90
5128;DHT22;2582;48.770;9.190;2022-08-19T12:31:02;24.40;99.90
5128;DHT22;2582;48.770;9.190;2022-08-19T12:33:28;24.00;99.90
5128;DHT22;2582;48.770;9.190;2022-08-19T12:35:54;23.70;99.90
5128;DHT22;2582;48.770;9.190;2022-08-19T12:38:24;23.60;99.90
5128;DHT22;2582;48.770;9.190;2022-08-19T12:40:50;23.40;99.90
5128;DHT22;2582;48.770;9.190;2022-08-19T12:43:17;23.30;99.90
5128;DHT22;2582;48.770;9.190;2022-08-19T12:45:45;23.30;99.90
5128;DHT22;2582;48.770;9.190;2022-08-19T12:48:11;23.30;99.90
5128;DHT22;2582;48.770;9.190;2022-08-19T12:50:40;23.10;99.90
5128;DHT22;2582;48.770;9.190;2022-08-19T12:53:05;22.90;99.90
5128;DHT22;2582;48.770;9.190;2022-08-19T12:55:31;22.90;99.90
5128;DHT22;2582;48.770;9.190;2022-08-19T12:57:57;22.90;99.90
5128;DHT22;2582;48.770;9.190;2022-08-19T13:00:23;22.90;99.90
5128;DHT22;2582;48.770;9.190;2022-08-19T13:02:51;23.10;99.90
5128;DHT22;2582;48.770;9.190;2022-08-19T13:05:23;23.30;99.90
5128;DHT22;2582;48.770;9.190;2022-08-19T13:07:51;23.40;99.90
5128;DHT22;2582;48.770;9.190;2022-08-19T13:10:19;23.40;99.90
5128;DHT22;2582;48.770;9.190;2022-08-19T13:12:47;23.20;99.90
5128;DHT22;2582;48.770;9.190;2022-08-19T13:15:14;23.20;99.90
5128;DHT22;2582;48.770;9.190;2022-08-19T13:17:40;23.30;99.90
5128;DHT22;2582;48.770;9.190;2022-08-19T13:20:08;23.30;99.90
5128;DHT22;2582;48.770;9.190;2022-08-19T13:22:34;23.50;99.90
5128;DHT22;2582;48.770;9.190;2022-08-19T13:25:02;23.60;99.90
5128;DHT22;2582;48.770;9.190;2022-08-19T13:27:29;23.50;99.90
5128;DHT22;2582;48.770;9.190;2022-08-19T13:29:55;23.40;99.90
5128;DHT22;2582;48.770;9.190;2022-08-19T13:32:39;23.30;99.90
5128;DHT22;2582;48.770;9.190;2022-08-19T13:35:23;23.10;99.90
5128;DHT22;2582;48.770;9.190;2022-08-19T13:37:48;23.10;99.90
5128;DHT22;2582;48.770;9.190;2022-08-19T13:40:20;23.20;99.90
5128;DHT22;2582;48.770;9.190;2022-08-19T13:42:50;23.10;99.90
5128;DHT22;2582;48.770;9.190;2022-08-19T13:45:22;23.10;99.90
5128;DHT22;2582;48.770;9.190;2022-08-19T13:47:50;23.20;99.90
5128;DHT22;2582;48.770;9.190;2022-08-19T13:50:18;23.00;99.90
5128;DHT22;2582;48.770;9.190;2022-08-19T13:52:44;22.80;99.90
5128;DHT22;2582;48.770;9.190;2022-08-19T13:55:11;22.80;99.90
5128;DHT22;2582;48.770;9.190;2022-08-19T13:57:37;22.80;99.90
5128;DHT22;2582;48.770;9.190;2022-08-19T14:00:09;22.60;99.90
5128;DHT22;2582;48.770;9.190;2022-08-19T14:02:37;22.50;99.90
5128;DHT22;2582;48.770;9.190;2022-08-19T14:05:04;22.40;99.90
5128;DHT22;2582;48.770;9.190;2022-08-19T14:07:30;22.30;99.90
5128;DHT22;2582;48.770;9.190;2022-08-19T14:09:56;22.40;99.90
5128;DHT22;2582;48.770;9.190;2022-08-19T14:12:21;22.30;99.90
5128;DHT22;2582;48.770;9.190;2022-08-19T14:14:47;22.20;99.90
5128;DHT22;2582;48.770;9.190;2022-08-19T14:17:13;22.00;99.90
5128;DHT22;2582;48.770;9.190;2022-08-19T14:19:38;22.20;99.90
5128;DHT22;2582;48.770;9.190;2022-08-19T14:22:04;22.40;99.90
5128;DHT22;2582;48.770;9.190;2022-08-19T14:24:31;22.40;99.90
5128;DHT22;2582;48.770;9.190;2022-08-19T14:26:58;22.30;99.90
5128;DHT22;2582;48.770;9.190;2022-08-19T14:29:24;22.20;99.90
5128;DHT22;2582;48.770;9.190;2022-08-19T14:31:50;22.20;99.90
5128;DHT22;2582;48.770;9.190;2022-08-19T14:34:15;22.20;99.90
5128;DHT22;2582;48.770;9.190;2022-08-19T14:36:41;22.30;99.90
5128;DHT22;2582;48.770;9.190;2022-08-19T14:39:07;22.30;99.90
5128;DHT22;2582;48.770;9.190;2022-08-19T14:43:59;22.50;99.90
5128;DHT22;2582;48.770;9.190;2022-08-19T14:46:27;22.70;99.90
5128;DHT22;2582;48.770;9.190;2022-08-19T14:48:53;22.90;99.90
5128;DHT22;2582;48.770;9.190;2022-08-19T14:51:21;23.00;99.90
5128;DHT22;2582;48.770;9.190;2022-08-19T14:53:47;23.10;99.90
5128;DHT22;2582;48.770;9.190;2022-08-19T14:56:22;23.40;99.90
5128;DHT22;2582;48.770;9.190;2022-08-19T14:58:48;23.40;99.90
5128;DHT22;2582;48.770;9.190;2022-08-19T15:01:17;23.30;99.90
5128;DHT22;2582;48.770;9.190;2022-08-19T15:03:46;23.30;99.90
5128;DHT22;2582;48.770;9.190;2022-08-19T15:06:11;23.40;99.90
5128;DHT22;2582;48.770;9.190;2022-08-19T15:08:38;23.50;99.90
5128;DHT22;2582;48.770;9.190;2022-08-19T15:11:08;23.70;99.90
5128;DHT22;2582;48.770;9.190;2022-08-19T15:13:35;23.90;99.90
5128;DHT22;2582;48.770;9.190;2022-08-19T15:16:01;24.00;99.90
5128;DHT22;2582;48.770;9.190;2022-08-19T15:18:27;24.00;99.90
5128;DHT22;2582;48.770;9.190;2022-08-19T15:20:53;24.10;99.90
5128;DHT22;2582;48.770;9.190;2022-08-19T15:23:20;24.30;99.90
5128;DHT22;2582;48.770;9.190;2022-08-19T15:25:46;24.60;99.90
5128;DHT22;2582;48.770;9.190;2022-08-19T15:28:12;24.90;99.90
5128;DHT22;2582;48.770;9.190;2022-08-19T15:30:39;25.20;99.90
5128;DHT22;2582;48.770;9.190;2022-08-19T15:33:05;25.00;99.90
5128;DHT22;2582;48.770;9.190;2022-08-19T15:35:32;25.00;99.90
5128;DHT22;2582;48.770;9.190;2022-08-19T15:37:58;25.00;99.90
5128;DHT22;2582;48.770;9.190;2022-08-19T15:40:25;25.00;99.90
5128;DHT22;2582;48.770;9.190;2022-08-19T15:42:52;25.10;99.90
5128;DHT22;2582;48.770;9.190;2022-08-19T15:45:19;24.80;99.90
5128;DHT22;2582;48.770;9.190;2022-08-19T15:47:46;24.40;99.90
5128;DHT22;2582;48.770;9.190;2022-08-19T15:50:15;24.30;99.90
5128;DHT22;2582;48.770;9.190;2022-08-19T15:52:50;24.10;99.90
5128;DHT22;2582;48.770;9.190;2022-08-19T15:55:19;24.20;99.90
5128;DHT22;2582;48.770;9.190;2022-08-19T15:57:45;24.30;99.90
5128;DHT22;2582;48.770;9.190;2022-08-19T16:00:29;24.70;99.90
5128;DHT22;2582;48.770;9.190;2022-08-19T16:03:14;25.00;99.90
5128;DHT22;2582;48.770;9.190;2022-08-19T16:05:59;25.10;99.90
5128;DHT22;2582;48.770;9.190;2022-08-19T16:08:43;25.20;99.90
5128;DHT22;2582;48.770;9.190;2022-08-19T16:11:12;25.40;99.90
5128;DHT22;2582;48.770;9.190;2022-08-19T16:13:38;25.40;99.90
5128;DHT22;2582;48.770;9.190;2022-08-19T16:16:04;25.40;99.90